createdAt,value
2017-12-15T00:01:58.811Z,4.93
2017-12-15T00:04:25.074Z,5.50
2017-12-15T00:06:51.419Z,5.90
2017-12-15T00:09:17.678Z,4.10
2017-12-15T00:11:43.936Z,7.40
2017-12-15T00:14:10.167Z,4.87
2017-12-15T00:16:36.448Z,3.30
2017-12-15T00:19:02.768Z,5.23
2017-12-15T00:21:29.025Z,6.13
2017-12-15T00:23:55.294Z,4.13
2017-12-15T00:26:21.649Z,5.30
2017-12-15T00:28:48.673Z,7.03
2017-12-15T00:31:14.957Z,3.90
2017-12-15T00:33:41.236Z,3.97
2017-12-15T00:36:07.511Z,4.73
2017-12-15T00:38:34.667Z,2.63
2017-12-15T00:41:00.936Z,5.67
2017-12-15T00:43:27.225Z,4.30
2017-12-15T00:45:53.474Z,3.40
2017-12-15T00:48:19.810Z,7.60
2017-12-15T00:50:46.065Z,3.63
2017-12-15T00:53:12.318Z,4.73
2017-12-15T00:55:38.565Z,4.03
2017-12-15T00:58:04.836Z,4.43
2017-12-15T01:00:31.099Z,3.17
2017-12-15T01:02:57.351Z,2.60
2017-12-15T01:05:23.632Z,7.17
2017-12-15T01:07:49.941Z,4.60
2017-12-15T01:10:16.169Z,2.80
2017-12-15T01:12:42.478Z,2.30
2017-12-15T01:15:09.544Z,3.57
2017-12-15T01:17:35.866Z,2.77
2017-12-15T01:20:02.108Z,4.60
2017-12-15T01:22:28.387Z,3.50
2017-12-15T01:24:54.672Z,4.90
2017-12-15T01:27:21.467Z,4.20
2017-12-15T01:29:47.821Z,3.53
2017-12-15T01:32:14.050Z,4.07
2017-12-15T01:34:40.328Z,4.63
2017-12-15T01:37:07.386Z,6.97
2017-12-15T01:39:34.440Z,8.40
2017-12-15T01:42:00.730Z,5.20
2017-12-15T01:44:27.754Z,4.27
2017-12-15T01:46:53.987Z,6.80
2017-12-15T01:49:20.318Z,10.07
2017-12-15T01:51:46.545Z,6.47
2017-12-15T01:54:12.791Z,9.23
2017-12-15T01:56:39.834Z,11.93
2017-12-15T01:59:06.082Z,7.97
2017-12-15T02:01:32.338Z,8.90
2017-12-15T02:03:58.643Z,11.63
2017-12-15T02:06:25.644Z,9.10
2017-12-15T02:08:51.871Z,8.40
2017-12-15T02:11:18.158Z,14.43
2017-12-15T02:13:44.394Z,8.23
2017-12-15T02:16:10.676Z,9.43
2017-12-15T02:18:37.696Z,10.90
2017-12-15T02:21:04.193Z,9.00
2017-12-15T02:23:30.423Z,10.00
2017-12-15T02:25:57.450Z,12.97
2017-12-15T02:28:24.492Z,9.37
2017-12-15T02:30:51.462Z,14.97
2017-12-15T02:33:17.823Z,7.93
2017-12-15T02:35:44.105Z,11.40
2017-12-15T02:38:11.103Z,9.07
2017-12-15T02:40:37.311Z,13.37
2017-12-15T02:43:03.559Z,10.13
2017-12-15T02:45:29.787Z,8.63
2017-12-15T02:47:56.063Z,10.20
2017-12-15T02:50:23.037Z,12.83
2017-12-15T02:52:49.299Z,8.50
2017-12-15T02:55:15.502Z,9.20
2017-12-15T02:57:41.769Z,11.03
2017-12-15T03:00:07.998Z,16.00
2017-12-15T03:02:34.224Z,12.17
2017-12-15T03:05:00.484Z,9.87
2017-12-15T03:07:27.474Z,11.70
2017-12-15T03:09:53.728Z,9.63
2017-12-15T03:12:19.956Z,9.10
2017-12-15T03:14:46.209Z,10.40
2017-12-15T03:17:13.162Z,11.90
2017-12-15T03:19:40.137Z,13.40
2017-12-15T03:22:07.166Z,11.13
2017-12-15T03:24:33.473Z,14.40
2017-12-15T03:26:59.711Z,7.80
2017-12-15T03:29:26.741Z,9.73
2017-12-15T03:31:53.722Z,10.63
2017-12-15T03:34:19.977Z,13.60
2017-12-15T03:36:46.225Z,9.80
2017-12-15T03:39:12.466Z,13.70
2017-12-15T03:41:38.682Z,10.77
2017-12-15T03:44:04.942Z,10.00
2017-12-15T03:46:32.021Z,11.20
2017-12-15T03:48:58.319Z,11.20
2017-12-15T03:51:25.297Z,11.10
2017-12-15T03:53:51.531Z,18.60
2017-12-15T03:56:17.855Z,10.43
2017-12-15T03:58:44.130Z,13.00
2017-12-15T04:01:10.479Z,9.30
2017-12-15T04:03:36.690Z,12.00
2017-12-15T04:06:03.007Z,9.90
2017-12-15T04:08:29.472Z,9.73
2017-12-15T04:10:56.493Z,10.20
2017-12-15T04:13:22.782Z,13.20
2017-12-15T04:15:49.043Z,8.23
2017-12-15T04:18:15.326Z,8.27
2017-12-15T04:20:41.770Z,10.07
2017-12-15T04:23:08.014Z,7.00
2017-12-15T04:25:34.338Z,7.67
2017-12-15T04:28:00.595Z,9.00
2017-12-15T04:30:26.848Z,15.47
2017-12-15T04:32:53.890Z,8.37
2017-12-15T04:35:20.958Z,8.67
2017-12-15T04:37:47.242Z,10.70
2017-12-15T04:40:13.527Z,5.97
2017-12-15T04:42:39.800Z,10.23
2017-12-15T04:45:06.014Z,6.73
2017-12-15T04:47:32.274Z,8.77
2017-12-15T04:49:59.254Z,9.47
2017-12-15T04:52:25.613Z,11.60
2017-12-15T04:54:51.874Z,7.57
2017-12-15T04:57:18.135Z,7.40
2017-12-15T04:59:44.375Z,9.43
2017-12-15T05:02:10.702Z,10.00
2017-12-15T05:04:36.967Z,11.00
2017-12-15T05:07:03.203Z,12.37
2017-12-15T05:09:29.474Z,9.53
2017-12-15T05:11:55.850Z,6.93
2017-12-15T05:14:22.141Z,10.13
2017-12-15T05:16:48.366Z,14.80
2017-12-15T05:19:14.631Z,31.63
2017-12-15T05:21:40.973Z,14.03
2017-12-15T05:24:07.254Z,13.70
2017-12-15T05:26:33.619Z,10.50
2017-12-15T05:28:59.867Z,22.43
2017-12-15T05:31:26.139Z,17.67
2017-12-15T05:33:52.481Z,11.63
2017-12-15T05:36:18.731Z,22.53
2017-12-15T05:38:44.985Z,25.03
2017-12-15T05:41:11.253Z,25.50
2017-12-15T05:43:38.702Z,14.53
2017-12-15T05:46:05.785Z,13.27
2017-12-15T05:48:32.115Z,11.63
2017-12-15T05:50:58.385Z,11.50
2017-12-15T05:53:24.633Z,14.67
2017-12-15T05:55:51.616Z,10.77
2017-12-15T05:58:17.858Z,19.13
2017-12-15T06:00:44.123Z,11.80
2017-12-15T06:03:10.420Z,11.13
2017-12-15T06:05:36.674Z,6.60
2017-12-15T06:08:02.966Z,8.20
2017-12-15T06:10:29.255Z,13.27
2017-12-15T06:12:56.206Z,13.40
2017-12-15T06:15:22.414Z,22.30
2017-12-15T06:17:49.484Z,12.67
2017-12-15T06:20:16.602Z,9.27
2017-12-15T06:22:42.853Z,12.27
2017-12-15T06:25:09.089Z,12.47
2017-12-15T06:27:35.327Z,9.57
2017-12-15T06:30:01.610Z,12.27
2017-12-15T06:32:27.886Z,12.37
2017-12-15T06:34:54.211Z,17.33
2017-12-15T06:37:20.562Z,8.83
2017-12-15T06:39:46.791Z,14.93
2017-12-15T06:42:13.152Z,12.33
2017-12-15T06:44:39.397Z,13.27
2017-12-15T06:47:05.685Z,16.10
2017-12-15T06:49:31.944Z,25.17
2017-12-15T06:51:58.195Z,8.40
2017-12-15T06:54:24.522Z,15.17
2017-12-15T06:56:51.568Z,17.63
2017-12-15T06:59:18.564Z,18.93
2017-12-15T07:01:44.817Z,18.43
2017-12-15T07:04:11.062Z,23.53
2017-12-15T07:06:38.050Z,21.87
2017-12-15T07:09:04.300Z,13.93
2017-12-15T07:11:30.510Z,13.30
2017-12-15T07:13:56.777Z,10.23
2017-12-15T07:16:23.758Z,17.23
2017-12-15T07:18:50.096Z,13.83
2017-12-15T07:21:16.310Z,13.47
2017-12-15T07:23:43.379Z,18.27
2017-12-15T07:26:09.689Z,20.70
2017-12-15T07:28:36.695Z,22.53
2017-12-15T07:31:02.963Z,19.03
2017-12-15T07:33:30.012Z,26.30
2017-12-15T07:36:04.042Z,16.23
2017-12-15T07:38:31.006Z,23.37
2017-12-15T07:40:57.246Z,15.50
2017-12-15T07:43:23.517Z,16.17
2017-12-15T07:45:49.887Z,23.40
2017-12-15T07:48:16.653Z,20.00
2017-12-15T07:50:42.957Z,16.80
2017-12-15T07:53:09.298Z,14.47
2017-12-15T07:55:35.626Z,16.63
2017-12-15T07:58:01.876Z,14.77
2017-12-15T08:00:28.184Z,10.13
2017-12-15T08:02:54.422Z,15.63
2017-12-15T08:05:20.680Z,16.60
2017-12-15T08:07:47.649Z,14.40
2017-12-15T08:10:13.984Z,12.90
2017-12-15T08:12:40.264Z,16.20
2017-12-15T08:15:06.538Z,16.03
2017-12-15T08:17:32.862Z,19.40
2017-12-15T08:19:59.125Z,14.60
2017-12-15T08:22:25.467Z,19.40
2017-12-15T08:24:51.754Z,14.23
2017-12-15T08:27:18.100Z,30.97
2017-12-15T08:29:44.409Z,25.97
2017-12-15T08:32:10.689Z,16.23
2017-12-15T08:34:37.039Z,24.40
2017-12-15T08:37:03.361Z,24.17
2017-12-15T08:39:29.651Z,25.73
2017-12-15T08:41:56.087Z,30.67
2017-12-15T08:44:22.384Z,37.30
2017-12-15T08:46:49.375Z,29.27
2017-12-15T08:49:16.525Z,24.00
2017-12-15T08:51:42.810Z,25.40
2017-12-15T08:54:09.084Z,20.80
2017-12-15T08:56:35.560Z,26.33
2017-12-15T08:59:02.531Z,33.43
2017-12-15T09:01:28.828Z,19.50
2017-12-15T09:04:01.325Z,19.50
2017-12-15T09:06:27.569Z,19.10
2017-12-15T09:08:53.983Z,26.63
2017-12-15T09:11:20.290Z,30.00
2017-12-15T09:13:47.302Z,26.57
2017-12-15T09:16:13.571Z,22.20
2017-12-15T09:18:41.210Z,23.73
2017-12-15T09:21:07.618Z,18.90
2017-12-15T09:23:33.998Z,21.20
2017-12-15T09:26:01.256Z,23.30
2017-12-15T09:28:27.601Z,16.70
2017-12-15T09:30:53.894Z,18.87
2017-12-15T09:33:20.303Z,15.40
2017-12-15T09:35:46.706Z,12.87
2017-12-15T09:38:13.012Z,17.27
2017-12-15T09:40:39.326Z,18.43
2017-12-15T09:43:05.550Z,23.83
2017-12-15T09:45:31.782Z,12.97
2017-12-15T09:47:58.763Z,14.07
2017-12-15T09:50:24.989Z,12.90
2017-12-15T09:52:51.256Z,12.47
2017-12-15T09:55:17.464Z,15.40
2017-12-15T09:57:43.779Z,15.03
2017-12-15T10:00:10.062Z,21.13
2017-12-15T10:02:36.431Z,16.73
2017-12-15T10:05:02.731Z,20.50
2017-12-15T10:07:29.723Z,22.10
2017-12-15T10:10:00.609Z,21.67
2017-12-15T10:12:27.606Z,20.03
2017-12-15T10:14:53.838Z,17.07
2017-12-15T10:17:20.067Z,21.53
2017-12-15T10:19:46.310Z,19.40
2017-12-15T10:22:12.558Z,17.43
2017-12-15T10:24:38.886Z,24.73
2017-12-15T10:27:05.129Z,24.37
2017-12-15T10:29:31.379Z,24.43
2017-12-15T10:31:57.667Z,23.10
2017-12-15T10:34:23.921Z,18.77
2017-12-15T10:36:51.272Z,25.53
2017-12-15T10:39:18.338Z,24.20
2017-12-15T10:41:44.578Z,21.43
2017-12-15T10:44:10.846Z,16.37
2017-12-15T10:46:37.127Z,18.87
2017-12-15T10:49:03.368Z,18.37
2017-12-15T10:51:29.617Z,21.70
2017-12-15T10:53:55.993Z,20.57
2017-12-15T10:56:22.973Z,23.13
2017-12-15T10:58:49.243Z,28.03
2017-12-15T11:01:16.222Z,27.70
2017-12-15T11:03:43.190Z,29.73
2017-12-15T11:06:09.566Z,21.37
2017-12-15T11:08:35.800Z,35.33
2017-12-15T11:11:02.061Z,27.00
2017-12-15T11:13:29.059Z,28.10
2017-12-15T11:15:55.288Z,29.87
2017-12-15T11:18:21.531Z,27.93
2017-12-15T11:20:47.790Z,27.17
2017-12-15T11:23:14.031Z,41.07
2017-12-15T11:25:40.302Z,43.60
2017-12-15T11:28:06.564Z,35.30
2017-12-15T11:30:33.583Z,37.30
2017-12-15T11:32:59.911Z,34.23
2017-12-15T11:35:26.188Z,26.40
2017-12-15T11:37:52.428Z,28.93
2017-12-15T11:40:18.701Z,23.93
2017-12-15T11:42:45.052Z,31.40
2017-12-15T11:45:11.344Z,33.80
2017-12-15T11:47:37.614Z,30.97
2017-12-15T11:50:04.706Z,30.50
2017-12-15T11:52:30.995Z,38.57
2017-12-15T11:55:01.878Z,27.57
2017-12-15T11:57:29.115Z,23.80
2017-12-15T11:59:55.346Z,32.40
2017-12-15T12:02:21.582Z,31.03
2017-12-15T12:04:47.889Z,30.43
2017-12-15T12:07:14.127Z,31.47
2017-12-15T12:09:40.376Z,27.37
2017-12-15T12:12:06.640Z,21.87
2017-12-15T12:14:33.662Z,31.33
2017-12-15T12:17:00.803Z,28.10
2017-12-15T12:19:27.066Z,31.17
2017-12-15T12:21:54.153Z,23.73
2017-12-15T12:24:20.597Z,24.23
2017-12-15T12:26:46.844Z,27.23
2017-12-15T12:29:13.140Z,25.17
2017-12-15T12:31:39.402Z,19.83
2017-12-15T12:34:05.687Z,18.30
2017-12-15T12:36:32.709Z,21.00
2017-12-15T12:38:59.678Z,17.77
2017-12-15T12:41:29.549Z,20.07
2017-12-15T12:43:55.787Z,18.67
2017-12-15T12:46:22.029Z,18.97
2017-12-15T12:48:48.994Z,16.50
2017-12-15T12:51:15.253Z,22.97
2017-12-15T12:53:41.538Z,20.13
2017-12-15T12:56:08.575Z,17.00
2017-12-15T12:58:35.584Z,15.60
2017-12-15T13:01:02.473Z,18.43
2017-12-15T13:03:36.058Z,19.90
2017-12-15T13:06:04.959Z,27.30
2017-12-15T13:08:33.156Z,16.07
2017-12-15T13:10:59.406Z,16.13
2017-12-15T13:13:27.467Z,16.70
2017-12-15T13:16:04.738Z,17.53
2017-12-15T13:21:05.955Z,16.23
2017-12-15T13:23:32.324Z,16.40
2017-12-15T13:26:01.297Z,17.73
2017-12-15T13:28:34.694Z,15.03
2017-12-15T13:31:01.569Z,18.43
2017-12-15T13:33:29.626Z,18.13
2017-12-15T13:36:03.811Z,24.00
2017-12-15T13:38:30.072Z,21.03
2017-12-15T13:40:56.303Z,24.70
2017-12-15T13:43:22.515Z,29.37
2017-12-15T13:45:49.486Z,19.77
2017-12-15T13:48:15.734Z,18.43
2017-12-15T13:50:42.086Z,19.53
2017-12-15T13:53:08.542Z,23.07
2017-12-15T13:55:35.674Z,20.70
2017-12-15T13:58:01.930Z,30.47
2017-12-15T14:00:28.909Z,24.20
2017-12-15T14:02:55.150Z,23.97
2017-12-15T14:05:23.139Z,25.47
2017-12-15T14:07:49.694Z,26.70
2017-12-15T14:10:16.731Z,26.07
2017-12-15T14:12:42.938Z,27.73
2017-12-15T14:15:09.171Z,25.53
2017-12-15T14:17:35.469Z,30.50
2017-12-15T14:20:01.763Z,31.90
2017-12-15T14:22:28.883Z,31.80
2017-12-15T14:24:55.249Z,33.17
2017-12-15T14:27:21.535Z,41.27
2017-12-15T14:29:47.826Z,37.17
2017-12-15T14:32:14.105Z,34.73
2017-12-15T14:34:40.420Z,39.60
2017-12-15T14:37:06.650Z,36.87
2017-12-15T14:39:32.940Z,37.30
2017-12-15T14:41:59.260Z,43.57
2017-12-15T14:44:25.570Z,39.70
2017-12-15T14:46:52.806Z,49.27
2017-12-15T14:49:19.095Z,47.13
2017-12-15T14:51:45.415Z,51.80
2017-12-15T14:54:11.778Z,47.80
2017-12-15T14:56:38.071Z,52.33
2017-12-15T14:59:04.409Z,56.13
2017-12-15T15:01:30.670Z,52.30
2017-12-15T15:03:56.934Z,56.60
2017-12-15T15:06:23.955Z,55.73
2017-12-15T15:08:50.932Z,45.13
2017-12-15T15:11:17.930Z,45.33
2017-12-15T15:13:44.182Z,47.60
2017-12-15T15:16:10.477Z,51.20
2017-12-15T15:18:36.755Z,50.30
2017-12-15T15:21:03.101Z,54.43
2017-12-15T15:23:30.107Z,47.80
2017-12-15T15:25:56.377Z,49.60
2017-12-15T15:28:22.618Z,50.57
2017-12-15T15:30:48.894Z,50.30
2017-12-15T15:33:15.234Z,51.40
2017-12-15T15:35:42.436Z,51.10
2017-12-15T15:38:08.676Z,47.60
2017-12-15T15:40:34.906Z,53.50
2017-12-15T15:43:01.218Z,56.47
2017-12-15T15:45:27.454Z,52.07
2017-12-15T15:47:53.746Z,51.73
2017-12-15T15:50:20.762Z,52.10
2017-12-15T15:52:47.016Z,44.47
2017-12-15T15:55:14.087Z,52.33
2017-12-15T15:57:40.465Z,56.53
2017-12-15T16:00:06.726Z,60.23
2017-12-15T16:02:32.982Z,55.63
2017-12-15T16:04:59.229Z,55.30
2017-12-15T16:07:25.511Z,55.40
2017-12-15T16:09:52.787Z,53.07
2017-12-15T16:12:19.075Z,65.00
2017-12-15T16:14:45.322Z,56.60
2017-12-15T16:17:12.368Z,63.60
2017-12-15T16:19:39.398Z,54.93
2017-12-15T16:22:05.671Z,69.10
2017-12-15T16:24:32.691Z,56.80
2017-12-15T16:26:59.834Z,58.77
2017-12-15T16:29:27.110Z,70.83
2017-12-15T16:31:53.590Z,61.33
2017-12-15T16:34:19.814Z,69.73
2017-12-15T16:36:46.367Z,72.30
2017-12-15T16:39:13.418Z,65.20
2017-12-15T16:41:39.804Z,67.20
2017-12-15T16:44:06.281Z,65.13
2017-12-15T16:46:32.538Z,70.10
2017-12-15T16:48:58.818Z,65.20
2017-12-15T16:51:25.099Z,65.00
2017-12-15T16:53:51.369Z,76.70
2017-12-15T16:56:17.640Z,66.30
2017-12-15T16:58:43.919Z,75.20
2017-12-15T17:01:10.286Z,67.90
2017-12-15T17:03:36.592Z,74.93
2017-12-15T17:06:02.837Z,71.80
2017-12-15T17:08:29.102Z,78.27
2017-12-15T17:10:55.599Z,70.27
2017-12-15T17:13:22.029Z,65.53
2017-12-15T17:15:49.797Z,70.07
2017-12-15T17:18:16.027Z,66.57
2017-12-15T17:20:43.072Z,75.43
2017-12-15T17:23:09.340Z,78.87
2017-12-15T17:25:37.090Z,76.27
2017-12-15T17:28:03.461Z,75.47
2017-12-15T17:30:29.750Z,61.73
2017-12-15T17:32:56.847Z,74.70
2017-12-15T17:35:23.143Z,76.20
2017-12-15T17:37:49.438Z,74.83
2017-12-15T17:40:15.971Z,71.57
2017-12-15T17:42:43.006Z,71.70
2017-12-15T17:45:09.429Z,73.93
2017-12-15T17:47:36.483Z,81.57
2017-12-15T17:50:02.793Z,69.50
2017-12-15T17:52:29.199Z,68.80
2017-12-15T17:54:55.540Z,71.87
2017-12-15T17:57:21.856Z,71.40
2017-12-15T17:59:48.103Z,80.70
2017-12-15T18:02:15.211Z,68.07
2017-12-15T18:04:42.319Z,67.70
2017-12-15T18:07:08.575Z,86.47
2017-12-15T18:09:34.882Z,86.20
2017-12-15T18:12:02.136Z,73.00
2017-12-15T18:14:29.175Z,74.77
2017-12-15T18:16:55.466Z,77.93
2017-12-15T18:19:21.794Z,79.17
2017-12-15T18:21:48.951Z,85.47
2017-12-15T18:24:15.352Z,70.07
2017-12-15T18:26:42.929Z,79.20
2017-12-15T18:29:09.251Z,76.50
2017-12-15T18:31:35.548Z,72.53
2017-12-15T18:34:01.832Z,82.57
2017-12-15T18:36:29.032Z,80.27
2017-12-15T18:38:55.405Z,99.47
2017-12-15T18:41:22.484Z,112.17
2017-12-15T18:43:51.346Z,96.10
2017-12-15T18:46:18.581Z,78.30
2017-12-15T18:48:44.831Z,90.70
2017-12-15T18:51:11.102Z,87.73
2017-12-15T18:53:37.384Z,104.53
2017-12-15T18:56:03.642Z,90.43
2017-12-15T18:58:29.944Z,96.07
2017-12-15T19:00:56.222Z,87.43
2017-12-15T19:03:22.489Z,81.47
2017-12-15T19:05:48.827Z,97.77
2017-12-15T19:08:15.123Z,91.90
2017-12-15T19:10:42.297Z,99.17
2017-12-15T19:13:08.626Z,97.00
2017-12-15T19:15:34.929Z,87.13
2017-12-15T19:18:01.312Z,80.20
2017-12-15T19:20:27.594Z,82.67
2017-12-15T19:22:54.113Z,91.30
2017-12-15T19:25:20.602Z,87.13
2017-12-15T19:27:48.017Z,103.03
2017-12-15T19:30:15.026Z,88.33
2017-12-15T19:35:24.463Z,91.10
2017-12-15T19:37:51.194Z,97.30
2017-12-15T19:40:17.452Z,96.27
2017-12-15T19:42:43.722Z,94.07
2017-12-15T19:45:10.839Z,77.90
2017-12-15T19:47:37.224Z,81.27
2017-12-15T19:50:03.456Z,85.47
2017-12-15T19:52:29.801Z,80.83
2017-12-15T19:54:57.963Z,88.87
2017-12-15T19:57:24.251Z,74.90
2017-12-15T19:59:51.285Z,65.30
2017-12-15T20:02:17.702Z,74.60
2017-12-15T20:04:44.022Z,68.63
2017-12-15T20:07:10.384Z,67.23
2017-12-15T20:09:37.058Z,66.30
2017-12-15T20:12:12.994Z,78.00
2017-12-15T20:14:47.035Z,76.27
2017-12-15T20:17:13.312Z,71.17
2017-12-15T20:19:39.700Z,73.40
2017-12-15T20:22:07.086Z,72.00
2017-12-15T20:24:33.954Z,71.37
2017-12-15T20:27:00.471Z,84.40
2017-12-15T20:29:27.859Z,74.07
2017-12-15T20:31:55.074Z,73.80
2017-12-15T20:34:21.357Z,78.03
2017-12-15T20:36:47.716Z,88.70
2017-12-15T20:39:14.003Z,82.47
2017-12-15T20:41:40.271Z,82.23
2017-12-15T20:44:06.551Z,83.43
2017-12-15T20:46:33.317Z,72.37
2017-12-15T20:48:59.642Z,70.03
2017-12-15T20:51:25.973Z,92.40
2017-12-15T20:53:52.248Z,87.73
2017-12-15T20:56:18.735Z,90.23
2017-12-15T20:58:45.077Z,72.90
2017-12-15T21:01:11.492Z,73.20
2017-12-15T21:03:37.866Z,70.40
2017-12-15T21:06:04.187Z,55.63
2017-12-15T21:08:31.258Z,58.67
2017-12-15T21:10:57.674Z,64.97
2017-12-15T21:13:24.617Z,73.93
2017-12-15T21:15:50.988Z,69.93
2017-12-15T21:18:18.800Z,58.53
2017-12-15T21:20:45.035Z,68.73
2017-12-15T21:23:11.325Z,56.23
2017-12-15T21:25:38.319Z,72.63
2017-12-15T21:28:04.590Z,62.83
2017-12-15T21:30:31.553Z,63.87
2017-12-15T21:32:57.872Z,71.40
2017-12-15T21:35:24.850Z,67.17
2017-12-15T21:37:51.082Z,61.83
2017-12-15T21:40:17.459Z,59.07
2017-12-15T21:42:44.592Z,59.00
2017-12-15T21:45:10.928Z,67.10
2017-12-15T21:47:37.199Z,60.77
2017-12-15T21:50:04.256Z,67.07
2017-12-15T21:52:45.640Z,59.63
2017-12-15T21:55:11.922Z,63.97
2017-12-15T21:57:39.638Z,71.07
2017-12-15T22:00:06.017Z,66.53
2017-12-15T22:02:33.067Z,61.63
2017-12-15T22:05:00.210Z,65.83
2017-12-15T22:07:26.572Z,56.20
2017-12-15T22:09:52.915Z,51.10
2017-12-15T22:12:19.319Z,56.43
2017-12-15T22:14:46.327Z,55.33
2017-12-15T22:17:12.621Z,55.03
2017-12-15T22:19:40.043Z,61.20
2017-12-15T22:22:07.078Z,58.23
2017-12-15T22:24:33.401Z,57.00
2017-12-15T22:27:00.454Z,61.40
2017-12-15T22:29:26.752Z,57.07
2017-12-15T22:31:53.053Z,55.47
2017-12-15T22:34:19.316Z,48.27
2017-12-15T22:36:45.825Z,48.20
2017-12-15T22:39:12.103Z,55.90
2017-12-15T22:41:38.584Z,57.67
2017-12-15T22:44:04.831Z,49.57
2017-12-15T22:46:31.312Z,47.80
2017-12-15T22:48:57.677Z,49.10
2017-12-15T22:51:24.051Z,48.60
2017-12-15T22:53:50.414Z,49.87
2017-12-15T22:56:17.449Z,49.63
2017-12-15T22:58:44.491Z,53.07
2017-12-15T23:01:11.501Z,44.83
2017-12-15T23:03:37.830Z,47.97
2017-12-15T23:06:04.123Z,47.23
2017-12-15T23:08:30.516Z,51.40
2017-12-15T23:10:56.793Z,48.57
2017-12-15T23:13:23.294Z,51.43
2017-12-15T23:15:50.274Z,53.97
2017-12-15T23:18:16.559Z,49.43
2017-12-15T23:20:42.829Z,45.70
2017-12-15T23:23:09.087Z,46.73
2017-12-15T23:25:35.369Z,44.33
2017-12-15T23:28:01.670Z,50.80
2017-12-15T23:30:28.005Z,51.73
2017-12-15T23:32:54.255Z,51.07
2017-12-15T23:35:22.528Z,57.47
2017-12-15T23:37:49.542Z,50.30
2017-12-15T23:40:15.797Z,40.13
2017-12-15T23:42:42.869Z,55.80
2017-12-15T23:45:09.134Z,49.43
2017-12-15T23:47:35.394Z,43.80
2017-12-15T23:50:02.395Z,59.40
2017-12-15T23:52:28.719Z,44.70
2017-12-15T23:57:53.837Z,46.63
